sensor_id;sensor_type;location;lat;lon;timestamp;P1;durP1;ratioP1;P2;durP2;ratioP2
36575;SDS011;45700;50.930;5.168;2022-12-13T00:00:37;7.33;;;5.70;;
36575;SDS011;45700;50.930;5.168;2022-12-13T00:04:38;28.03;;;10.13;;
36575;SDS011;45700;50.930;5.168;2022-12-13T00:08:40;25.67;;;9.35;;
36575;SDS011;45700;50.930;5.168;2022-12-13T00:12:41;18.10;;;7.70;;
36575;SDS011;45700;50.930;5.168;2022-12-13T00:16:45;17.57;;;8.47;;
36575;SDS011;45700;50.930;5.168;2022-12-13T00:20:47;4.37;;;3.97;;
36575;SDS011;45700;50.930;5.168;2022-12-13T00:24:48;5.67;;;4.47;;
36575;SDS011;45700;50.930;5.168;2022-12-13T00:28:49;7.67;;;6.17;;
36575;SDS011;45700;50.930;5.168;2022-12-13T00:32:50;10.50;;;4.77;;
36575;SDS011;45700;50.930;5.168;2022-12-13T00:36:54;12.50;;;8.03;;
36575;SDS011;45700;50.930;5.168;2022-12-13T00:40:55;18.07;;;8.87;;
36575;SDS011;45700;50.930;5.168;2022-12-13T00:44:56;29.00;;;6.60;;
36575;SDS011;45700;50.930;5.168;2022-12-13T00:48:58;43.33;;;6.73;;
36575;SDS011;45700;50.930;5.168;2022-12-13T00:53:00;7.90;;;5.03;;
36575;SDS011;45700;50.930;5.168;2022-12-13T00:57:01;13.20;;;7.17;;
36575;SDS011;45700;50.930;5.168;2022-12-13T01:01:06;19.17;;;7.67;;
36575;SDS011;45700;50.930;5.168;2022-12-13T01:05:07;13.57;;;5.73;;
36575;SDS011;45700;50.930;5.168;2022-12-13T01:09:11;5.30;;;4.53;;
36575;SDS011;45700;50.930;5.168;2022-12-13T01:13:14;9.83;;;5.63;;
36575;SDS011;45700;50.930;5.168;2022-12-13T01:17:15;11.00;;;5.33;;
36575;SDS011;45700;50.930;5.168;2022-12-13T01:21:17;11.07;;;7.70;;
36575;SDS011;45700;50.930;5.168;2022-12-13T01:25:19;11.30;;;7.37;;
36575;SDS011;45700;50.930;5.168;2022-12-13T01:29:20;23.83;;;8.83;;
36575;SDS011;45700;50.930;5.168;2022-12-13T01:33:22;26.93;;;9.10;;
36575;SDS011;45700;50.930;5.168;2022-12-13T01:37:23;8.63;;;5.17;;
36575;SDS011;45700;50.930;5.168;2022-12-13T01:41:24;39.23;;;8.93;;
36575;SDS011;45700;50.930;5.168;2022-12-13T01:45:26;19.97;;;7.40;;
36575;SDS011;45700;50.930;5.168;2022-12-13T01:49:28;11.47;;;6.10;;
36575;SDS011;45700;50.930;5.168;2022-12-13T01:53:30;18.00;;;7.97;;
36575;SDS011;45700;50.930;5.168;2022-12-13T01:57:32;7.73;;;5.57;;
36575;SDS011;45700;50.930;5.168;2022-12-13T02:01:34;15.63;;;6.73;;
36575;SDS011;45700;50.930;5.168;2022-12-13T02:05:37;12.50;;;7.53;;
36575;SDS011;45700;50.930;5.168;2022-12-13T02:09:39;15.00;;;7.87;;
36575;SDS011;45700;50.930;5.168;2022-12-13T02:13:41;31.50;;;11.83;;
36575;SDS011;45700;50.930;5.168;2022-12-13T02:22:16;47.58;;;16.70;;
36575;SDS011;45700;50.930;5.168;2022-12-13T02:30:46;35.78;;;12.52;;
36575;SDS011;45700;50.930;5.168;2022-12-13T02:34:53;37.92;;;12.13;;
36575;SDS011;45700;50.930;5.168;2022-12-13T02:38:57;32.03;;;10.55;;
36575;SDS011;45700;50.930;5.168;2022-12-13T02:43:00;42.20;;;13.68;;
36575;SDS011;45700;50.930;5.168;2022-12-13T02:47:08;42.65;;;13.23;;
36575;SDS011;45700;50.930;5.168;2022-12-13T02:51:10;38.88;;;12.23;;
36575;SDS011;45700;50.930;5.168;2022-12-13T02:55:13;43.03;;;12.82;;
36575;SDS011;45700;50.930;5.168;2022-12-13T02:59:14;29.92;;;12.15;;
36575;SDS011;45700;50.930;5.168;2022-12-13T03:07:42;32.42;;;10.75;;
36575;SDS011;45700;50.930;5.168;2022-12-13T03:11:52;46.50;;;12.35;;
36575;SDS011;45700;50.930;5.168;2022-12-13T03:16:23;25.67;;;10.57;;
36575;SDS011;45700;50.930;5.168;2022-12-13T03:20:26;24.15;;;9.35;;
36575;SDS011;45700;50.930;5.168;2022-12-13T03:24:27;30.25;;;9.98;;
36575;SDS011;45700;50.930;5.168;2022-12-13T03:28:29;23.40;;;10.02;;
36575;SDS011;45700;50.930;5.168;2022-12-13T03:32:30;27.40;;;10.50;;
36575;SDS011;45700;50.930;5.168;2022-12-13T03:36:31;34.47;;;11.57;;
36575;SDS011;45700;50.930;5.168;2022-12-13T03:40:32;25.45;;;9.25;;
36575;SDS011;45700;50.930;5.168;2022-12-13T03:44:34;24.75;;;9.68;;
36575;SDS011;45700;50.930;5.168;2022-12-13T03:48:35;23.80;;;8.88;;
36575;SDS011;45700;50.930;5.168;2022-12-13T03:52:36;24.27;;;9.15;;
36575;SDS011;45700;50.930;5.168;2022-12-13T03:56:37;23.63;;;8.73;;
36575;SDS011;45700;50.930;5.168;2022-12-13T04:00:38;21.05;;;9.05;;
36575;SDS011;45700;50.930;5.168;2022-12-13T04:04:39;25.83;;;8.70;;
36575;SDS011;45700;50.930;5.168;2022-12-13T04:08:40;30.90;;;10.13;;
36575;SDS011;45700;50.930;5.168;2022-12-13T04:12:41;21.40;;;9.25;;
36575;SDS011;45700;50.930;5.168;2022-12-13T04:17:02;1.33;;;1.23;;
36575;SDS011;45700;50.930;5.168;2022-12-13T04:21:03;15.30;;;3.03;;
36575;SDS011;45700;50.930;5.168;2022-12-13T04:25:04;11.13;;;4.63;;
36575;SDS011;45700;50.930;5.168;2022-12-13T04:29:05;3.30;;;2.50;;
36575;SDS011;45700;50.930;5.168;2022-12-13T04:33:06;1.83;;;1.57;;
36575;SDS011;45700;50.930;5.168;2022-12-13T04:37:07;9.43;;;4.37;;
36575;SDS011;45700;50.930;5.168;2022-12-13T04:41:12;9.07;;;3.93;;
36575;SDS011;45700;50.930;5.168;2022-12-13T04:45:15;6.27;;;4.40;;
36575;SDS011;45700;50.930;5.168;2022-12-13T04:49:16;9.73;;;2.40;;
36575;SDS011;45700;50.930;5.168;2022-12-13T04:53:17;5.60;;;4.17;;
36575;SDS011;45700;50.930;5.168;2022-12-13T04:57:18;13.23;;;4.10;;
36575;SDS011;45700;50.930;5.168;2022-12-13T05:01:19;29.50;;;9.87;;
36575;SDS011;45700;50.930;5.168;2022-12-13T05:05:20;39.10;;;11.90;;
36575;SDS011;45700;50.930;5.168;2022-12-13T05:09:21;31.15;;;11.27;;
36575;SDS011;45700;50.930;5.168;2022-12-13T05:13:22;5.47;;;3.58;;
36575;SDS011;45700;50.930;5.168;2022-12-13T05:17:23;8.73;;;4.03;;
36575;SDS011;45700;50.930;5.168;2022-12-13T05:21:24;10.90;;;6.23;;
36575;SDS011;45700;50.930;5.168;2022-12-13T05:25:26;3.97;;;3.10;;
36575;SDS011;45700;50.930;5.168;2022-12-13T05:29:27;8.00;;;5.00;;
36575;SDS011;45700;50.930;5.168;2022-12-13T05:33:28;3.13;;;2.00;;
36575;SDS011;45700;50.930;5.168;2022-12-13T05:37:29;9.10;;;2.63;;
36575;SDS011;45700;50.930;5.168;2022-12-13T05:41:31;3.23;;;2.83;;
36575;SDS011;45700;50.930;5.168;2022-12-13T05:45:32;2.80;;;2.60;;
36575;SDS011;45700;50.930;5.168;2022-12-13T05:49:33;1.43;;;1.40;;
36575;SDS011;45700;50.930;5.168;2022-12-13T05:53:34;4.77;;;2.80;;
36575;SDS011;45700;50.930;5.168;2022-12-13T05:57:35;4.13;;;2.80;;
36575;SDS011;45700;50.930;5.168;2022-12-13T06:01:36;17.07;;;7.97;;
36575;SDS011;45700;50.930;5.168;2022-12-13T06:05:38;21.13;;;7.97;;
36575;SDS011;45700;50.930;5.168;2022-12-13T06:09:39;26.20;;;6.40;;
36575;SDS011;45700;50.930;5.168;2022-12-13T06:13:40;21.65;;;8.63;;
36575;SDS011;45700;50.930;5.168;2022-12-13T06:17:42;8.27;;;5.43;;
36575;SDS011;45700;50.930;5.168;2022-12-13T06:21:43;4.00;;;3.60;;
36575;SDS011;45700;50.930;5.168;2022-12-13T06:25:44;1.90;;;1.80;;
36575;SDS011;45700;50.930;5.168;2022-12-13T06:29:45;5.93;;;2.63;;
36575;SDS011;45700;50.930;5.168;2022-12-13T06:33:46;4.67;;;4.20;;
36575;SDS011;45700;50.930;5.168;2022-12-13T06:37:50;5.47;;;2.40;;
36575;SDS011;45700;50.930;5.168;2022-12-13T06:41:51;11.90;;;2.73;;
36575;SDS011;45700;50.930;5.168;2022-12-13T06:45:52;16.10;;;6.53;;
36575;SDS011;45700;50.930;5.168;2022-12-13T06:49:53;14.97;;;7.17;;
36575;SDS011;45700;50.930;5.168;2022-12-13T06:53:54;13.47;;;6.67;;
36575;SDS011;45700;50.930;5.168;2022-12-13T06:57:56;15.57;;;6.57;;
36575;SDS011;45700;50.930;5.168;2022-12-13T07:01:57;15.13;;;7.40;;
36575;SDS011;45700;50.930;5.168;2022-12-13T07:05:59;28.33;;;7.57;;
36575;SDS011;45700;50.930;5.168;2022-12-13T07:10:00;22.07;;;7.93;;
36575;SDS011;45700;50.930;5.168;2022-12-13T07:14:01;19.50;;;6.57;;
36575;SDS011;45700;50.930;5.168;2022-12-13T07:18:02;30.10;;;7.53;;
36575;SDS011;45700;50.930;5.168;2022-12-13T07:22:03;15.00;;;6.07;;
36575;SDS011;45700;50.930;5.168;2022-12-13T07:26:05;14.17;;;6.23;;
36575;SDS011;45700;50.930;5.168;2022-12-13T07:30:06;9.93;;;7.37;;
36575;SDS011;45700;50.930;5.168;2022-12-13T07:34:07;20.77;;;8.77;;
36575;SDS011;45700;50.930;5.168;2022-12-13T07:38:09;19.00;;;7.83;;
36575;SDS011;45700;50.930;5.168;2022-12-13T07:42:10;20.07;;;7.73;;
36575;SDS011;45700;50.930;5.168;2022-12-13T07:46:11;16.80;;;7.47;;
36575;SDS011;45700;50.930;5.168;2022-12-13T07:50:13;23.27;;;8.97;;
36575;SDS011;45700;50.930;5.168;2022-12-13T07:54:14;17.47;;;8.20;;
36575;SDS011;45700;50.930;5.168;2022-12-13T07:58:15;11.70;;;6.13;;
36575;SDS011;45700;50.930;5.168;2022-12-13T08:02:16;17.00;;;7.67;;
36575;SDS011;45700;50.930;5.168;2022-12-13T08:06:17;18.87;;;8.30;;
36575;SDS011;45700;50.930;5.168;2022-12-13T08:10:19;22.63;;;8.70;;
36575;SDS011;45700;50.930;5.168;2022-12-13T08:14:20;23.80;;;8.80;;
36575;SDS011;45700;50.930;5.168;2022-12-13T08:18:20;9.83;;;4.90;;
36575;SDS011;45700;50.930;5.168;2022-12-13T08:22:21;9.30;;;6.07;;
36575;SDS011;45700;50.930;5.168;2022-12-13T08:26:22;16.97;;;7.97;;
36575;SDS011;45700;50.930;5.168;2022-12-13T08:30:23;16.50;;;8.93;;
36575;SDS011;45700;50.930;5.168;2022-12-13T08:34:24;24.50;;;8.33;;
36575;SDS011;45700;50.930;5.168;2022-12-13T08:38:26;16.73;;;8.30;;
36575;SDS011;45700;50.930;5.168;2022-12-13T08:42:27;14.37;;;6.50;;
36575;SDS011;45700;50.930;5.168;2022-12-13T08:46:28;27.73;;;8.90;;
36575;SDS011;45700;50.930;5.168;2022-12-13T08:50:29;15.07;;;8.33;;
36575;SDS011;45700;50.930;5.168;2022-12-13T08:54:33;18.00;;;9.10;;
36575;SDS011;45700;50.930;5.168;2022-12-13T08:58:34;23.83;;;8.27;;
36575;SDS011;45700;50.930;5.168;2022-12-13T09:02:36;36.30;;;12.50;;
36575;SDS011;45700;50.930;5.168;2022-12-13T09:06:37;30.00;;;11.60;;
36575;SDS011;45700;50.930;5.168;2022-12-13T09:10:38;35.53;;;11.45;;
36575;SDS011;45700;50.930;5.168;2022-12-13T09:14:39;25.30;;;10.27;;
36575;SDS011;45700;50.930;5.168;2022-12-13T09:18:40;11.20;;;6.80;;
36575;SDS011;45700;50.930;5.168;2022-12-13T09:22:41;14.00;;;8.73;;
36575;SDS011;45700;50.930;5.168;2022-12-13T09:26:42;36.08;;;9.98;;
36575;SDS011;45700;50.930;5.168;2022-12-13T09:30:43;18.40;;;7.27;;
36575;SDS011;45700;50.930;5.168;2022-12-13T09:34:45;16.50;;;8.33;;
36575;SDS011;45700;50.930;5.168;2022-12-13T09:38:47;29.40;;;8.80;;
36575;SDS011;45700;50.930;5.168;2022-12-13T09:42:49;21.30;;;7.60;;
36575;SDS011;45700;50.930;5.168;2022-12-13T09:46:50;20.33;;;6.60;;
36575;SDS011;45700;50.930;5.168;2022-12-13T09:50:52;24.92;;;9.10;;
36575;SDS011;45700;50.930;5.168;2022-12-13T09:54:53;16.42;;;7.25;;
36575;SDS011;45700;50.930;5.168;2022-12-13T09:58:55;29.70;;;11.55;;
36575;SDS011;45700;50.930;5.168;2022-12-13T10:02:57;41.28;;;12.50;;
36575;SDS011;45700;50.930;5.168;2022-12-13T10:06:58;37.03;;;13.18;;
36575;SDS011;45700;50.930;5.168;2022-12-13T10:10:59;39.45;;;12.23;;
36575;SDS011;45700;50.930;5.168;2022-12-13T10:15:00;37.95;;;11.85;;
36575;SDS011;45700;50.930;5.168;2022-12-13T10:19:11;9.77;;;5.75;;
36575;SDS011;45700;50.930;5.168;2022-12-13T10:23:15;18.23;;;9.43;;
36575;SDS011;45700;50.930;5.168;2022-12-13T10:27:26;20.27;;;8.90;;
36575;SDS011;45700;50.930;5.168;2022-12-13T10:31:27;23.13;;;8.38;;
36575;SDS011;45700;50.930;5.168;2022-12-13T10:35:29;17.88;;;8.13;;
36575;SDS011;45700;50.930;5.168;2022-12-13T10:39:38;22.00;;;9.27;;
36575;SDS011;45700;50.930;5.168;2022-12-13T10:43:39;25.77;;;7.45;;
36575;SDS011;45700;50.930;5.168;2022-12-13T10:47:41;12.15;;;6.07;;
36575;SDS011;45700;50.930;5.168;2022-12-13T10:51:43;11.45;;;7.60;;
36575;SDS011;45700;50.930;5.168;2022-12-13T10:55:44;13.98;;;6.13;;
36575;SDS011;45700;50.930;5.168;2022-12-13T10:59:46;13.52;;;6.43;;
36575;SDS011;45700;50.930;5.168;2022-12-13T11:03:58;24.38;;;9.07;;
36575;SDS011;45700;50.930;5.168;2022-12-13T11:12:13;33.60;;;11.00;;
36575;SDS011;45700;50.930;5.168;2022-12-13T11:16:31;38.13;;;10.18;;
36575;SDS011;45700;50.930;5.168;2022-12-13T11:20:34;33.28;;;10.02;;
36575;SDS011;45700;50.930;5.168;2022-12-13T11:24:36;13.50;;;6.32;;
36575;SDS011;45700;50.930;5.168;2022-12-13T11:41:52;12.38;;;6.93;;
36575;SDS011;45700;50.930;5.168;2022-12-13T11:45:34;9.98;;;5.30;;
36575;SDS011;45700;50.930;5.168;2022-12-13T11:49:37;11.32;;;5.20;;
36575;SDS011;45700;50.930;5.168;2022-12-13T11:53:53;11.18;;;5.40;;
36575;SDS011;45700;50.930;5.168;2022-12-13T11:57:58;6.13;;;5.32;;
36575;SDS011;45700;50.930;5.168;2022-12-13T12:02:04;7.60;;;4.43;;
36575;SDS011;45700;50.930;5.168;2022-12-13T12:06:20;36.78;;;13.20;;
36575;SDS011;45700;50.930;5.168;2022-12-13T12:10:29;39.78;;;11.98;;
36575;SDS011;45700;50.930;5.168;2022-12-13T12:14:45;39.60;;;12.07;;
36575;SDS011;45700;50.930;5.168;2022-12-13T12:18:49;48.40;;;12.43;;
36575;SDS011;45700;50.930;5.168;2022-12-13T12:23:00;26.95;;;6.95;;
36575;SDS011;45700;50.930;5.168;2022-12-13T12:31:25;9.70;;;5.43;;
36575;SDS011;45700;50.930;5.168;2022-12-13T12:39:46;11.50;;;5.20;;
36575;SDS011;45700;50.930;5.168;2022-12-13T12:44:00;12.88;;;5.80;;
36575;SDS011;45700;50.930;5.168;2022-12-13T12:56:36;11.57;;;6.68;;
36575;SDS011;45700;50.930;5.168;2022-12-13T13:00:49;16.90;;;5.65;;
36575;SDS011;45700;50.930;5.168;2022-12-13T13:04:57;16.48;;;7.00;;
36575;SDS011;45700;50.930;5.168;2022-12-13T13:09:00;12.65;;;4.80;;
36575;SDS011;45700;50.930;5.168;2022-12-13T13:13:03;10.20;;;4.82;;
36575;SDS011;45700;50.930;5.168;2022-12-13T13:25:28;19.88;;;8.13;;
36575;SDS011;45700;50.930;5.168;2022-12-13T13:29:30;13.95;;;6.28;;
36575;SDS011;45700;50.930;5.168;2022-12-13T13:37:46;9.60;;;5.82;;
36575;SDS011;45700;50.930;5.168;2022-12-13T13:45:52;10.00;;;5.35;;
36575;SDS011;45700;50.930;5.168;2022-12-13T13:58:20;15.55;;;8.07;;
36575;SDS011;45700;50.930;5.168;2022-12-13T14:15:47;12.02;;;5.25;;
36575;SDS011;45700;50.930;5.168;2022-12-13T14:28:17;10.27;;;5.20;;
36575;SDS011;45700;50.930;5.168;2022-12-13T14:32:22;11.48;;;4.97;;
36575;SDS011;45700;50.930;5.168;2022-12-13T14:36:26;20.15;;;5.95;;
36575;SDS011;45700;50.930;5.168;2022-12-13T14:44:29;12.88;;;6.45;;
36575;SDS011;45700;50.930;5.168;2022-12-13T14:48:34;20.38;;;6.95;;
36575;SDS011;45700;50.930;5.168;2022-12-13T14:52:36;11.68;;;6.05;;
36575;SDS011;45700;50.930;5.168;2022-12-13T14:56:52;14.00;;;6.35;;
36575;SDS011;45700;50.930;5.168;2022-12-13T15:00:54;15.65;;;7.47;;
36575;SDS011;45700;50.930;5.168;2022-12-13T15:04:56;11.57;;;6.72;;
36575;SDS011;45700;50.930;5.168;2022-12-13T15:08:57;18.10;;;7.70;;
36575;SDS011;45700;50.930;5.168;2022-12-13T15:12:59;14.55;;;8.50;;
36575;SDS011;45700;50.930;5.168;2022-12-13T15:17:00;15.45;;;5.82;;
36575;SDS011;45700;50.930;5.168;2022-12-13T15:21:02;13.88;;;6.95;;
36575;SDS011;45700;50.930;5.168;2022-12-13T15:25:03;11.85;;;6.93;;
36575;SDS011;45700;50.930;5.168;2022-12-13T15:29:05;8.77;;;4.93;;
36575;SDS011;45700;50.930;5.168;2022-12-13T15:33:15;12.93;;;6.80;;
36575;SDS011;45700;50.930;5.168;2022-12-13T15:37:38;21.02;;;7.90;;
36575;SDS011;45700;50.930;5.168;2022-12-13T15:41:43;12.80;;;6.03;;
36575;SDS011;45700;50.930;5.168;2022-12-13T15:45:45;18.13;;;7.15;;
36575;SDS011;45700;50.930;5.168;2022-12-13T15:58:01;12.82;;;6.35;;
36575;SDS011;45700;50.930;5.168;2022-12-13T16:02:02;23.60;;;6.22;;
36575;SDS011;45700;50.930;5.168;2022-12-13T16:06:03;17.27;;;5.93;;
36575;SDS011;45700;50.930;5.168;2022-12-13T16:10:06;11.48;;;7.22;;
36575;SDS011;45700;50.930;5.168;2022-12-13T16:18:30;32.10;;;6.90;;
36575;SDS011;45700;50.930;5.168;2022-12-13T16:22:31;14.82;;;6.75;;
36575;SDS011;45700;50.930;5.168;2022-12-13T16:26:32;12.75;;;5.93;;
36575;SDS011;45700;50.930;5.168;2022-12-13T16:34:50;12.32;;;6.07;;
36575;SDS011;45700;50.930;5.168;2022-12-13T16:38:51;12.98;;;5.70;;
36575;SDS011;45700;50.930;5.168;2022-12-13T16:42:53;7.70;;;5.18;;
36575;SDS011;45700;50.930;5.168;2022-12-13T16:46:55;10.82;;;6.68;;
36575;SDS011;45700;50.930;5.168;2022-12-13T16:50:56;16.55;;;6.25;;
36575;SDS011;45700;50.930;5.168;2022-12-13T16:54:57;17.65;;;5.18;;
36575;SDS011;45700;50.930;5.168;2022-12-13T16:58:59;17.15;;;6.38;;
36575;SDS011;45700;50.930;5.168;2022-12-13T17:03:00;10.23;;;5.90;;
36575;SDS011;45700;50.930;5.168;2022-12-13T17:07:01;12.82;;;7.10;;
36575;SDS011;45700;50.930;5.168;2022-12-13T17:11:02;8.27;;;3.92;;
36575;SDS011;45700;50.930;5.168;2022-12-13T17:15:03;11.48;;;5.63;;
36575;SDS011;45700;50.930;5.168;2022-12-13T17:19:05;15.80;;;6.53;;
36575;SDS011;45700;50.930;5.168;2022-12-13T17:23:06;26.88;;;6.70;;
36575;SDS011;45700;50.930;5.168;2022-12-13T17:27:07;12.93;;;5.18;;
36575;SDS011;45700;50.930;5.168;2022-12-13T17:31:09;20.15;;;7.70;;
36575;SDS011;45700;50.930;5.168;2022-12-13T17:35:12;18.27;;;6.78;;
36575;SDS011;45700;50.930;5.168;2022-12-13T17:39:13;11.15;;;7.55;;
36575;SDS011;45700;50.930;5.168;2022-12-13T17:43:14;9.68;;;5.07;;
36575;SDS011;45700;50.930;5.168;2022-12-13T17:47:15;14.48;;;6.03;;
36575;SDS011;45700;50.930;5.168;2022-12-13T17:51:16;16.33;;;6.22;;
36575;SDS011;45700;50.930;5.168;2022-12-13T17:55:17;11.90;;;6.63;;
36575;SDS011;45700;50.930;5.168;2022-12-13T17:59:18;12.45;;;5.18;;
36575;SDS011;45700;50.930;5.168;2022-12-13T18:03:19;14.88;;;5.43;;
36575;SDS011;45700;50.930;5.168;2022-12-13T18:07:20;17.00;;;5.43;;
36575;SDS011;45700;50.930;5.168;2022-12-13T18:11:21;12.82;;;5.60;;
36575;SDS011;45700;50.930;5.168;2022-12-13T18:15:22;0.80;;;0.80;;
36575;SDS011;45700;50.930;5.168;2022-12-13T18:19:23;0.17;;;0.10;;
36575;SDS011;45700;50.930;5.168;2022-12-13T18:23:29;0.10;;;0.10;;
36575;SDS011;45700;50.930;5.168;2022-12-13T18:27:30;0.45;;;0.45;;
36575;SDS011;45700;50.930;5.168;2022-12-13T18:31:31;5.28;;;0.95;;
36575;SDS011;45700;50.930;5.168;2022-12-13T18:35:32;5.80;;;1.65;;
36575;SDS011;45700;50.930;5.168;2022-12-13T18:39:33;0.73;;;0.73;;
36575;SDS011;45700;50.930;5.168;2022-12-13T18:43:34;0.30;;;0.30;;
36575;SDS011;45700;50.930;5.168;2022-12-13T18:47:35;1.45;;;1.35;;
36575;SDS011;45700;50.930;5.168;2022-12-13T18:51:36;0.22;;;0.22;;
36575;SDS011;45700;50.930;5.168;2022-12-13T18:55:37;3.90;;;1.13;;
36575;SDS011;45700;50.930;5.168;2022-12-13T18:59:38;1.45;;;1.17;;
36575;SDS011;45700;50.930;5.168;2022-12-13T19:03:40;0.82;;;0.77;;
36575;SDS011;45700;50.930;5.168;2022-12-13T19:07:42;1.13;;;1.02;;
36575;SDS011;45700;50.930;5.168;2022-12-13T19:11:43;0.45;;;0.45;;
36575;SDS011;45700;50.930;5.168;2022-12-13T19:15:44;0.40;;;0.40;;
36575;SDS011;45700;50.930;5.168;2022-12-13T19:19:45;0.10;;;0.10;;
36575;SDS011;45700;50.930;5.168;2022-12-13T19:23:46;0.38;;;0.32;;
36575;SDS011;45700;50.930;5.168;2022-12-13T19:27:48;0.10;;;0.10;;
36575;SDS011;45700;50.930;5.168;2022-12-13T19:31:49;0.90;;;0.88;;
36575;SDS011;45700;50.930;5.168;2022-12-13T19:35:50;0.50;;;0.50;;
36575;SDS011;45700;50.930;5.168;2022-12-13T19:39:51;0.52;;;0.45;;
36575;SDS011;45700;50.930;5.168;2022-12-13T19:43:52;0.10;;;0.10;;
36575;SDS011;45700;50.930;5.168;2022-12-13T19:47:53;0.65;;;0.65;;
36575;SDS011;45700;50.930;5.168;2022-12-13T19:51:54;0.38;;;0.38;;
36575;SDS011;45700;50.930;5.168;2022-12-13T19:55:55;0.73;;;0.73;;
36575;SDS011;45700;50.930;5.168;2022-12-13T19:59:56;0.55;;;0.55;;
36575;SDS011;45700;50.930;5.168;2022-12-13T20:03:57;0.40;;;0.40;;
36575;SDS011;45700;50.930;5.168;2022-12-13T20:07:58;0.25;;;0.25;;
36575;SDS011;45700;50.930;5.168;2022-12-13T20:11:59;0.60;;;0.30;;
36575;SDS011;45700;50.930;5.168;2022-12-13T20:16:00;0.50;;;0.50;;
36575;SDS011;45700;50.930;5.168;2022-12-13T20:20:02;0.43;;;0.43;;
36575;SDS011;45700;50.930;5.168;2022-12-13T20:24:03;5.35;;;2.92;;
36575;SDS011;45700;50.930;5.168;2022-12-13T20:28:05;1.25;;;1.17;;
36575;SDS011;45700;50.930;5.168;2022-12-13T20:32:06;0.10;;;0.10;;
36575;SDS011;45700;50.930;5.168;2022-12-13T20:36:09;8.07;;;1.63;;
36575;SDS011;45700;50.930;5.168;2022-12-13T20:40:10;1.17;;;1.08;;
36575;SDS011;45700;50.930;5.168;2022-12-13T20:44:11;0.75;;;0.75;;
36575;SDS011;45700;50.930;5.168;2022-12-13T20:48:12;0.47;;;0.47;;
36575;SDS011;45700;50.930;5.168;2022-12-13T20:52:13;0.65;;;0.65;;
36575;SDS011;45700;50.930;5.168;2022-12-13T20:56:15;2.47;;;2.28;;
36575;SDS011;45700;50.930;5.168;2022-12-13T21:00:16;0.30;;;0.30;;
36575;SDS011;45700;50.930;5.168;2022-12-13T21:04:18;0.30;;;0.30;;
36575;SDS011;45700;50.930;5.168;2022-12-13T21:08:19;12.57;;;6.65;;
36575;SDS011;45700;50.930;5.168;2022-12-13T21:12:38;18.02;;;8.43;;
36575;SDS011;45700;50.930;5.168;2022-12-13T21:16:40;4.00;;;1.58;;
36575;SDS011;45700;50.930;5.168;2022-12-13T21:20:42;0.43;;;0.43;;
36575;SDS011;45700;50.930;5.168;2022-12-13T21:24:43;0.45;;;0.45;;
36575;SDS011;45700;50.930;5.168;2022-12-13T21:28:44;1.75;;;1.45;;
36575;SDS011;45700;50.930;5.168;2022-12-13T21:32:46;2.13;;;1.58;;
36575;SDS011;45700;50.930;5.168;2022-12-13T21:36:48;3.33;;;2.65;;
36575;SDS011;45700;50.930;5.168;2022-12-13T21:40:49;0.50;;;0.50;;
36575;SDS011;45700;50.930;5.168;2022-12-13T21:44:50;1.48;;;1.38;;
36575;SDS011;45700;50.930;5.168;2022-12-13T21:48:52;3.25;;;0.50;;
36575;SDS011;45700;50.930;5.168;2022-12-13T21:52:53;0.35;;;0.30;;
36575;SDS011;45700;50.930;5.168;2022-12-13T21:56:54;1.00;;;1.00;;
36575;SDS011;45700;50.930;5.168;2022-12-13T22:01:13;0.93;;;0.90;;
36575;SDS011;45700;50.930;5.168;2022-12-13T22:05:14;1.35;;;1.25;;
36575;SDS011;45700;50.930;5.168;2022-12-13T22:09:15;1.98;;;1.80;;
36575;SDS011;45700;50.930;5.168;2022-12-13T22:13:16;0.10;;;0.10;;
36575;SDS011;45700;50.930;5.168;2022-12-13T22:17:17;0.10;;;0.10;;
36575;SDS011;45700;50.930;5.168;2022-12-13T22:21:22;1.20;;;0.63;;
36575;SDS011;45700;50.930;5.168;2022-12-13T22:25:23;2.53;;;2.40;;
36575;SDS011;45700;50.930;5.168;2022-12-13T22:29:25;0.20;;;0.20;;
36575;SDS011;45700;50.930;5.168;2022-12-13T22:33:26;0.40;;;0.40;;
36575;SDS011;45700;50.930;5.168;2022-12-13T22:37:27;0.15;;;0.15;;
36575;SDS011;45700;50.930;5.168;2022-12-13T22:41:28;1.15;;;1.15;;
36575;SDS011;45700;50.930;5.168;2022-12-13T22:45:29;1.10;;;1.02;;
36575;SDS011;45700;50.930;5.168;2022-12-13T22:49:30;1.80;;;1.70;;
36575;SDS011;45700;50.930;5.168;2022-12-13T22:53:31;0.90;;;0.90;;
36575;SDS011;45700;50.930;5.168;2022-12-13T22:57:32;0.52;;;0.52;;
36575;SDS011;45700;50.930;5.168;2022-12-13T23:01:34;0.25;;;0.25;;
36575;SDS011;45700;50.930;5.168;2022-12-13T23:05:36;2.10;;;1.25;;
36575;SDS011;45700;50.930;5.168;2022-12-13T23:09:37;0.47;;;0.47;;
36575;SDS011;45700;50.930;5.168;2022-12-13T23:13:38;0.10;;;0.10;;
36575;SDS011;45700;50.930;5.168;2022-12-13T23:17:39;1.02;;;1.02;;
36575;SDS011;45700;50.930;5.168;2022-12-13T23:21:40;4.47;;;1.35;;
36575;SDS011;45700;50.930;5.168;2022-12-13T23:25:41;2.80;;;2.08;;
36575;SDS011;45700;50.930;5.168;2022-12-13T23:29:42;2.38;;;2.08;;
36575;SDS011;45700;50.930;5.168;2022-12-13T23:33:43;0.70;;;0.70;;
36575;SDS011;45700;50.930;5.168;2022-12-13T23:37:45;0.73;;;0.73;;
36575;SDS011;45700;50.930;5.168;2022-12-13T23:41:46;0.98;;;0.57;;
36575;SDS011;45700;50.930;5.168;2022-12-13T23:45:47;0.10;;;0.10;;
36575;SDS011;45700;50.930;5.168;2022-12-13T23:49:48;0.40;;;0.40;;
36575;SDS011;45700;50.930;5.168;2022-12-13T23:53:49;0.47;;;0.22;;
36575;SDS011;45700;50.930;5.168;2022-12-13T23:57:50;16.27;;;5.65;;
